Overview Statistics Trail Chart Weather Telemetry Raw packets
 

This is the latest recevied weather packets stored in our database for station/object R2AJV-13. If no packets are shown the sender has not sent any weather packets the latest 10 day(s).

<< 5 6 7 8 9 10 11 >>
Time Temp. Humidity Pressure Rain* Wind** Luminosity Snow
1788548419 13.33° C 94% 993.2 hPa 0 mm - - -
1788546663 13.89° C 93% 993.4 hPa 0 mm - - -
1788545752 13.89° C 93% 993.6 hPa 0 mm - - -
1788544841 13.89° C 93% 993.6 hPa 0 mm - - -
1788543931 13.89° C 94% 993.8 hPa 0 mm - - -
1788543020 13.89° C 94% 993.8 hPa 0 mm - - -
1788542175 13.89° C 94% 993.9 hPa 0 mm - - -
1788541233 14.44° C 93% 993.8 hPa 0 mm - - -
1788538567 16.11° C 88% 993.8 hPa 0 mm - - -
1788537655 16.67° C 85% 993.8 hPa 0 mm - - -
1788536747 17.22° C 82% 993.9 hPa 0 mm - - -
1788535839 17.78° C 81% 993.9 hPa 0 mm - - -
1788534929 18.33° C 77% 994.1 hPa 0 mm - - -
1788451258 15° C 95% 998.5 hPa 0.51 mm - - -
1788450354 15.56° C 94% 998.5 hPa 0.51 mm - - -
1788449442 16.11° C 95% 998.4 hPa 0.51 mm - - -
1788448532 16.11° C 93% 998.4 hPa 0 mm - - -
1788447621 16.11° C 92% 998.4 hPa 0 mm - - -
1788446717 16.67° C 89% 998.4 hPa 0 mm - - -
1788444955 17.22° C 87% 998.4 hPa 0 mm - - -
1788443132 18.89° C 79% 998.3 hPa 0 mm - - -
1788442222 18.33° C 83% 998.3 hPa 0 mm - - -
1788441317 20° C 76% 998.3 hPa 0 mm - - -
1788440435 19.44° C 78% 998.4 hPa 0 mm - - -
1788439529 18.89° C 78% 998.4 hPa 0.51 mm - - -

* Rain latest hour (hover to see other rain measurements)
** Current wind speed in m/s (hover to see current wind gust speed)